Time;durP1;ratioP1;P1;durP2;ratioP2;P2;SDS_P1;SDS_P2;PMS_P1;PMS_P2;Temp;Humidity;BMP_temperature;BMP_pressure;BME280_temperature;BME280_humidity;BME280_pressure;Samples;Min_cycle;Max_cycle;Signal;HPM_P1;HPM_P2
2021/01/12 00:00:24;;;;;;;;;33.25;30.00;;;;;12.14;47.93;98387.06;5971296;23;102548;-85
2021/01/12 00:02:54;;;;;;;;;34.00;29.75;;;;;12.09;48.24;98384.19;5974861;23;102729;-85
2021/01/12 00:05:21;;;;;;;;;37.00;29.50;;;;;12.07;48.57;98378.13;5976538;22;103766;-85
2021/01/12 00:07:48;;;;;;;;;34.50;31.75;;;;;12.05;48.44;98377.53;5970558;23;102680;-85
2021/01/12 00:10:15;;;;;;;;;35.50;29.25;;;;;12.05;48.58;98381.06;5977505;23;102856;-85
2021/01/12 00:12:42;;;;;;;;;39.75;32.50;;;;;12.02;48.44;98378.78;5980963;23;102819;-85
2021/01/12 00:15:09;;;;;;;;;32.50;28.50;;;;;12.03;48.30;98387.75;5975318;23;104480;-85
2021/01/12 00:17:36;;;;;;;;;37.25;29.50;;;;;11.99;48.61;98375.66;5979281;23;102501;-84
2021/01/12 00:20:05;;;;;;;;;35.50;30.50;;;;;11.96;48.53;98374.25;5973835;23;102646;-85
2021/01/12 00:22:31;;;;;;;;;34.75;28.00;;;;;11.98;48.38;98372.13;5945947;22;102785;-85
2021/01/12 00:24:58;;;;;;;;;34.00;31.00;;;;;11.97;48.19;98369.66;5977576;23;104042;-85
2021/01/12 00:27:25;;;;;;;;;32.00;27.00;;;;;11.97;48.30;98373.19;5980079;23;102920;-85
2021/01/12 00:29:51;;;;;;;;;35.50;29.75;;;;;11.94;48.54;98361.94;5975928;23;102781;-84
2021/01/12 00:32:21;;;;;;;;;30.75;28.25;;;;;11.90;48.30;98358.84;5971977;23;102964;-85
2021/01/12 00:34:48;;;;;;;;;30.00;24.50;;;;;11.89;48.50;98350.91;5977596;23;104456;-85
2021/01/12 00:37:21;;;;;;;;;30.25;28.00;;;;;11.90;48.24;98356.13;5975562;23;102730;-85
2021/01/12 00:39:48;;;;;;;;;27.50;21.75;;;;;11.87;48.14;98361.97;5973798;23;102818;-85
2021/01/12 00:42:15;;;;;;;;;31.50;27.00;;;;;11.87;48.13;98353.03;5976964;22;102884;-85
2021/01/12 00:44:42;;;;;;;;;31.00;26.00;;;;;11.86;48.02;98351.34;5976269;23;103657;-85
2021/01/12 00:47:09;;;;;;;;;35.25;25.50;;;;;11.85;48.05;98357.81;5978225;23;102588;-85
2021/01/12 00:49:36;;;;;;;;;29.75;25.00;;;;;11.85;48.30;98352.38;5950135;22;102893;-85
2021/01/12 00:52:12;;;;;;;;;28.25;24.00;;;;;11.84;48.15;98348.03;5978030;23;102946;-85
2021/01/12 00:54:39;;;;;;;;;29.75;26.25;;;;;11.81;48.40;98334.91;5979233;22;109053;-85
2021/01/12 00:57:05;;;;;;;;;31.00;25.00;;;;;11.81;48.14;98340.31;5975918;22;102487;-85
2021/01/12 00:59:32;;;;;;;;;26.25;20.75;;;;;11.80;48.18;98335.94;5972353;23;102506;-84
2021/01/12 01:02:00;;;;;;;;;32.00;27.50;;;;;11.80;48.40;98333.25;5978179;23;102564;-85
2021/01/12 01:04:28;;;;;;;;;29.75;25.75;;;;;11.80;48.59;98344.06;5950221;22;104043;-85
2021/01/12 01:06:55;;;;;;;;;33.50;25.50;;;;;11.76;48.24;98334.72;5974975;23;102830;-85
2021/01/12 01:09:21;;;;;;;;;29.25;25.25;;;;;11.74;48.82;98342.25;5976121;23;102579;-85
2021/01/12 01:11:48;;;;;;;;;24.25;23.75;;;;;11.75;47.93;98335.78;5978089;22;102846;-85
2021/01/12 01:14:16;;;;;;;;;25.50;24.25;;;;;11.75;48.25;98330.38;5978041;22;104227;-86
2021/01/12 01:16:43;;;;;;;;;23.00;19.25;;;;;11.75;48.06;98324.94;5980677;23;102797;-85
2021/01/12 01:19:10;;;;;;;;;28.00;22.75;;;;;11.74;48.51;98329.53;5982201;23;102801;-85
2021/01/12 01:21:36;;;;;;;;;24.50;23.50;;;;;11.72;48.59;98319.91;5978219;23;103147;-85
2021/01/12 01:24:02;;;;;;;;;26.00;20.25;;;;;11.69;48.00;98320.34;5982699;23;103974;-85
2021/01/12 01:26:30;;;;;;;;;26.50;23.75;;;;;11.67;47.92;98317.84;5975776;22;104593;-85
2021/01/12 01:28:57;;;;;;;;;22.00;20.00;;;;;11.64;47.91;98302.03;5976904;23;102779;-85
2021/01/12 01:31:24;;;;;;;;;26.75;22.25;;;;;11.66;48.41;98304.53;5973340;22;102551;-85
2021/01/12 01:33:51;;;;;;;;;24.00;19.75;;;;;11.65;48.04;98298.28;5972878;22;104159;-85
2021/01/12 01:36:18;;;;;;;;;22.75;22.00;;;;;11.64;48.65;98294.75;5969319;23;102654;-85
2021/01/12 01:38:44;;;;;;;;;26.00;20.50;;;;;11.60;47.93;98295.41;5976144;22;102658;-85
2021/01/12 01:41:11;;;;;;;;;25.25;21.25;;;;;11.60;48.23;98293.53;5976134;22;102788;-85
2021/01/12 01:43:38;;;;;;;;;25.25;20.75;;;;;11.60;48.14;98298.94;5981817;23;104047;-85
2021/01/12 01:46:06;;;;;;;;;26.25;21.25;;;;;11.60;48.03;98296.22;5969652;22;102679;-86
2021/01/12 01:48:34;;;;;;;;;21.50;20.50;;;;;11.58;48.08;98284.78;5989438;22;102790;-86
2021/01/12 01:51:01;;;;;;;;;25.00;23.25;;;;;11.55;48.13;98277.09;5978816;23;102853;-85
2021/01/12 01:53:30;;;;;;;;;27.75;23.50;;;;;11.55;48.07;98277.09;5979672;23;104257;-85
2021/01/12 01:55:58;;;;;;;;;22.75;20.75;;;;;11.56;48.30;98272.50;5952771;22;102482;-85
2021/01/12 01:58:25;;;;;;;;;20.50;19.50;;;;;11.55;47.86;98270.84;5979671;22;102739;-86
2021/01/12 02:00:52;;;;;;;;;25.25;18.50;;;;;11.53;48.03;98262.91;5964765;23;102836;-85
2021/01/12 02:03:24;;;;;;;;;23.75;19.50;;;;;11.53;48.24;98252.09;5963267;22;104061;-85
2021/01/12 02:06:00;;;;;;;;;22.50;20.75;;;;;11.52;48.04;98261.28;5952168;22;111192;-85
2021/01/12 02:08:32;;;;;;;;;20.00;18.25;;;;;11.50;48.21;98252.53;5964366;23;102786;-85
2021/01/12 02:11:00;;;;;;;;;18.75;18.00;;;;;11.50;48.13;98252.53;5943961;22;102732;-86
2021/01/12 02:13:29;;;;;;;;;21.25;17.00;;;;;11.48;48.42;98232.94;5972307;22;104348;-85
2021/01/12 02:15:58;;;;;;;;;21.00;19.25;;;;;11.47;48.19;98238.59;5970967;23;103048;-85
2021/01/12 02:18:25;;;;;;;;;20.50;17.25;;;;;11.47;48.12;98236.72;5970527;23;102627;-86
2021/01/12 02:20:52;;;;;;;;;23.25;17.25;;;;;11.46;48.25;98228.81;5975479;23;102922;-85
2021/01/12 02:23:28;;;;;;;;;20.00;16.75;;;;;11.45;47.92;98233.38;5975738;23;104335;-85
2021/01/12 02:25:55;;;;;;;;;22.25;17.75;;;;;11.41;48.24;98229.44;5950729;22;102794;-86
2021/01/12 02:28:21;;;;;;;;;20.75;17.00;;;;;11.41;48.24;98229.44;5977719;22;102605;-86
2021/01/12 02:30:49;;;;;;;;;20.25;16.75;;;;;11.40;48.46;98233.19;5980091;23;102636;-86
2021/01/12 02:33:16;;;;;;;;;16.75;15.50;;;;;11.41;48.17;98236.75;5977879;23;104036;-85
2021/01/12 02:35:46;;;;;;;;;16.00;16.00;;;;;11.42;47.81;98227.56;5973444;22;102731;-85
2021/01/12 02:38:13;;;;;;;;;21.25;16.00;;;;;11.39;48.07;98226.13;5975807;23;102550;-86
2021/01/12 02:40:40;;;;;;;;;17.00;15.00;;;;;11.39;47.89;98217.19;5977499;23;102796;-85
2021/01/12 02:43:07;;;;;;;;;16.25;14.25;;;;;11.37;48.03;98220.09;5977525;22;109223;-86
2021/01/12 02:45:33;;;;;;;;;19.25;17.00;;;;;11.37;47.82;98221.97;5974324;22;102797;-86
2021/01/12 02:48:00;;;;;;;;;16.25;15.25;;;;;11.33;47.83;98208.06;5978922;23;102762;-85
2021/01/12 02:50:27;;;;;;;;;20.00;14.75;;;;;11.35;48.13;98205.09;5983818;23;102474;-85
2021/01/12 02:52:53;;;;;;;;;19.75;15.50;;;;;11.33;47.92;98202.63;5976409;22;104039;-85
2021/01/12 02:55:20;;;;;;;;;19.00;15.25;;;;;11.32;47.92;98203.69;5980602;23;102729;-86
2021/01/12 02:57:47;;;;;;;;;18.75;15.75;;;;;11.31;47.74;98193.88;5979863;23;102597;-86
2021/01/12 03:00:15;;;;;;;;;19.25;16.00;;;;;11.31;48.00;98187.63;5978452;23;102870;-86
2021/01/12 03:02:42;;;;;;;;;16.00;14.50;;;;;11.31;48.14;98182.22;5975750;23;104337;-86
2021/01/12 03:05:10;;;;;;;;;10.50;8.50;;;;;11.29;48.14;98182.47;5981945;23;102549;-85
2021/01/12 03:07:36;;;;;;;;;18.75;14.75;;;;;11.27;48.30;98171.00;5978138;22;102750;-85
2021/01/12 03:10:03;;;;;;;;;21.00;16.25;;;;;11.26;48.01;98161.22;5977304;23;102759;-85
2021/01/12 03:12:31;;;;;;;;;19.25;14.25;;;;;11.28;47.97;98172.69;5955518;23;104582;-86
2021/01/12 03:14:57;;;;;;;;;16.00;13.00;;;;;11.25;48.02;98167.72;5979903;22;102531;-86
2021/01/12 03:17:24;;;;;;;;;15.75;11.75;;;;;11.23;47.76;98161.66;5971355;23;102681;-85
2021/01/12 03:19:51;;;;;;;;;16.75;13.25;;;;;11.23;48.01;98152.72;5979078;22;102984;-85
2021/01/12 03:22:18;;;;;;;;;17.50;13.25;;;;;11.22;48.26;98149.16;5971444;23;104711;-85
2021/01/12 03:24:45;;;;;;;;;15.50;12.25;;;;;11.19;48.07;98139.63;5973191;23;102707;-85
2021/01/12 03:27:11;;;;;;;;;16.25;12.00;;;;;11.20;48.10;98143.16;5979476;23;102434;-85
2021/01/12 03:29:38;;;;;;;;;13.25;11.75;;;;;11.19;47.95;98134.22;5981444;22;102544;-85
2021/01/12 03:32:05;;;;;;;;;14.75;12.75;;;;;11.19;47.93;98138.78;5981068;23;104301;-85
2021/01/12 03:34:32;;;;;;;;;15.50;12.50;;;;;11.17;47.97;98130.88;5979869;22;102826;-85
2021/01/12 03:36:59;;;;;;;;;15.75;13.00;;;;;11.18;48.15;98127.13;5971708;22;102842;-86
2021/01/12 03:39:25;;;;;;;;;15.00;12.50;;;;;11.19;47.96;98125.25;5979867;22;102845;-85
2021/01/12 03:41:52;;;;;;;;;14.75;13.75;;;;;11.16;48.02;98117.59;5967423;23;103327;-85
2021/01/12 03:44:19;;;;;;;;;8.25;7.75;;;;;11.17;48.10;98111.09;5974863;22;102561;-85
2021/01/12 03:46:45;;;;;;;;;12.50;9.25;;;;;11.14;48.03;98111.53;5971268;23;102527;-85
2021/01/12 03:49:12;;;;;;;;;13.00;12.25;;;;;11.14;47.68;98100.72;5977456;22;102789;-86
2021/01/12 03:51:39;;;;;;;;;15.25;13.25;;;;;11.13;47.97;98104.47;5978696;23;104427;-85
2021/01/12 03:54:06;;;;;;;;;6.00;4.00;;;;;11.11;47.84;98102.00;5980314;22;102762;-86
2021/01/12 03:56:33;;;;;;;;;12.50;12.50;;;;;11.11;47.87;98102.00;5977554;23;102440;-86
2021/01/12 03:59:00;;;;;;;;;14.75;12.00;;;;;11.11;47.95;98093.03;5977305;22;102545;-85
2021/01/12 04:01:27;;;;;;;;;14.25;12.00;;;;;11.08;47.89;98086.19;5964736;23;106358;-85
2021/01/12 04:03:54;;;;;;;;;13.75;11.25;;;;;11.08;48.07;98080.78;5992829;23;102987;-85
2021/01/12 04:06:20;;;;;;;;;10.75;7.00;;;;;11.09;47.89;98077.03;5988985;23;102912;-85
2021/01/12 04:08:47;;;;;;;;;14.00;11.00;;;;;11.07;48.13;98075.59;5994708;23;102620;-85
2021/01/12 04:11:18;;;;;;;;;13.25;11.75;;;;;11.04;47.94;98067.88;5982947;23;104232;-85
2021/01/12 04:13:45;;;;;;;;;10.75;10.75;;;;;11.03;48.00;98080.59;5990029;23;102787;-85
2021/01/12 04:16:12;;;;;;;;;12.25;11.00;;;;;11.08;47.92;98071.81;5990871;23;102799;-85
2021/01/12 04:18:39;;;;;;;;;14.25;12.25;;;;;11.12;47.84;98075.78;5986818;23;102740;-85
2021/01/12 04:21:06;;;;;;;;;16.25;12.75;;;;;11.14;47.91;98074.50;5989508;23;103818;-85
2021/01/12 04:23:32;;;;;;;;;13.00;11.50;;;;;11.18;47.83;98064.06;5988818;23;104898;-85
2021/01/12 04:26:00;;;;;;;;;12.50;11.00;;;;;11.22;47.82;98061.75;5977887;23;102858;-85
2021/01/12 04:28:51;;;;;;;;;13.50;11.00;;;;;11.23;47.69;98077.78;5830152;22;103037;-85
2021/01/12 15:44:39;;;;;;;;;3.33;2.67;;;;;11.11;50.66;97287.66;6063781;22;102656;-81
2021/01/12 15:47:06;;;;;;;;;3.00;3.00;;;;;11.15;50.42;97286.13;6008348;22;103276;-83
2021/01/12 15:49:33;;;;;;;;;4.50;4.00;;;;;11.23;50.65;97292.22;5985893;22;104610;-83
2021/01/12 15:52:16;;;;;;;;;3.75;3.00;;;;;11.29;50.48;97277.75;5994350;22;102546;-85
2021/01/12 15:54:49;;;;;;;;;3.00;3.00;;;;;11.37;50.54;97280.09;5992361;22;102658;-85
2021/01/12 15:57:16;;;;;;;;;5.00;5.00;;;;;11.42;50.32;97281.03;5992272;22;102484;-85
2021/01/12 15:59:43;;;;;;;;;4.00;3.00;;;;;11.48;50.62;97271.13;5993864;22;104191;-85
2021/01/12 16:02:11;;;;;;;;;3.50;2.00;;;;;11.55;50.56;97275.34;5995430;22;102722;-85
2021/01/12 16:04:39;;;;;;;;;3.50;3.50;;;;;11.61;50.24;97268.97;5989127;22;102547;-85
2021/01/12 16:07:06;;;;;;;;;2.50;2.50;;;;;11.68;50.66;97266.13;5998396;22;102785;-85
2021/01/12 16:09:33;;;;;;;;;3.25;3.00;;;;;11.75;50.03;97264.16;5984213;22;106582;-82
2021/01/12 16:12:00;;;;;;;;;4.75;3.50;;;;;11.82;50.30;97269.41;5968404;22;102805;-82
2021/01/12 16:14:27;;;;;;;;;4.25;3.75;;;;;11.88;50.21;97263.03;5997186;22;102719;-83
2021/01/12 16:16:53;;;;;;;;;6.00;3.00;;;;;11.94;49.98;97262.88;5997976;22;102936;-83
2021/01/12 16:19:23;;;;;;;;;3.00;3.00;;;;;12.00;50.24;97255.66;5989435;22;104255;-83
2021/01/12 16:21:50;;;;;;;;;5.50;4.00;;;;;12.05;49.68;97256.59;5991434;22;102903;-83
2021/01/12 16:24:17;;;;;;;;;4.25;4.00;;;;;12.12;49.92;97259.13;5994670;22;102738;-82
2021/01/12 16:26:45;;;;;;;;;4.00;4.00;;;;;12.22;49.82;97253.06;5997054;22;102740;-82
2021/01/12 16:29:12;;;;;;;;;6.00;5.00;;;;;12.39;49.77;97246.59;5990042;22;104298;-82
2021/01/12 16:31:39;;;;;;;;;7.75;6.00;;;;;12.60;49.29;97241.53;5970190;22;102831;-83
2021/01/12 16:34:06;;;;;;;;;6.00;6.00;;;;;12.74;49.42;97237.41;5968446;22;102853;-85
2021/01/12 16:36:33;;;;;;;;;4.75;4.75;;;;;12.86;48.15;97238.13;5993552;22;102776;-83
2021/01/12 16:39:00;;;;;;;;;5.00;5.00;;;;;12.98;48.27;97228.00;5968328;22;104530;-85
2021/01/12 16:41:27;;;;;;;;;6.25;6.25;;;;;13.12;48.51;97229.31;5973319;22;102531;-81
2021/01/12 16:44:00;;;;;;;;;7.00;5.25;;;;;13.21;48.69;97230.53;5994910;22;102755;-85
2021/01/12 16:46:27;;;;;;;;;4.00;4.00;;;;;13.31;48.07;97241.53;5996033;22;103570;-84
2021/01/12 16:48:54;;;;;;;;;5.00;5.00;;;;;13.40;47.40;97240.00;5995085;22;109277;-82
2021/01/12 16:51:21;;;;;;;;;3.50;3.50;;;;;13.47;47.33;97233.56;5992373;22;102830;-82
2021/01/12 16:53:48;;;;;;;;;4.00;4.00;;;;;13.54;47.64;97229.59;5997879;22;102846;-82
2021/01/12 16:56:19;;;;;;;;;6.00;5.50;;;;;13.64;47.76;97231.59;6000987;22;102572;-78
2021/01/12 16:58:58;;;;;;;;;10.00;10.00;;;;;13.96;55.38;97235.22;5990319;22;104309;-88
2021/01/12 17:01:32;;;;;;;;;10.50;9.00;;;;;14.28;54.83;97230.63;5987591;22;102593;-91
2021/01/12 17:03:58;;;;;;;;;6.00;6.00;;;;;14.37;46.70;97230.19;5968348;22;102878;-87
2021/01/12 17:06:25;;;;;;;;;5.75;5.25;;;;;14.46;47.13;97231.34;5997179;22;102895;-91
2021/01/12 17:08:52;;;;;;;;;7.50;6.00;;;;;14.53;46.31;97227.38;5995716;22;104139;-89
2021/01/12 17:11:19;;;;;;;;;5.00;4.25;;;;;14.68;46.17;97213.88;5997106;22;102779;-90
2021/01/12 17:13:45;;;;;;;;;7.00;6.75;;;;;14.92;50.43;97216.22;5990680;22;102883;-92
2021/01/12 17:16:13;;;;;;;;;6.75;6.50;;;;;15.04;48.33;97217.63;5994058;22;102915;-84
2021/01/12 17:18:44;;;;;;;;;11.25;9.50;;;;;15.08;45.30;97217.97;5996999;22;104309;-87
2021/01/12 17:21:12;;;;;;;;;9.25;7.75;;;;;15.23;45.89;97211.75;5974214;22;102913;-90
2021/01/12 17:23:48;;;;;;;;;9.25;8.00;;;;;15.34;45.14;97210.72;5996220;22;102689;-89
2021/01/12 17:26:17;;;;;;;;;11.25;9.75;;;;;15.29;43.99;97199.81;6074749;22;102573;-84
2021/01/12 17:28:49;;;;;;;;;8.25;6.75;;;;;15.13;45.16;97216.06;5989860;22;105713;-81
2021/01/12 17:31:17;;;;;;;;;11.00;7.00;;;;;15.05;44.89;97211.13;5972589;22;102516;-81
2021/01/12 17:33:44;;;;;;;;;9.00;8.25;;;;;14.98;45.24;97213.25;5997813;22;104090;-81
2021/01/12 17:36:11;;;;;;;;;9.75;7.00;;;;;14.92;45.40;97203.41;5999859;22;102894;-81
2021/01/12 17:38:38;;;;;;;;;9.00;9.00;;;;;14.92;46.08;97211.59;5992280;22;103572;-81
2021/01/12 17:41:05;;;;;;;;;7.25;5.50;;;;;14.92;46.19;97202.59;5967591;22;102574;-80
2021/01/12 17:43:32;;;;;;;;;9.25;7.00;;;;;14.92;45.90;97202.59;5995420;22;102469;-80
2021/01/12 17:45:59;;;;;;;;;7.25;6.00;;;;;14.91;46.09;97212.66;5996995;22;102649;-86
2021/01/12 17:48:26;;;;;;;;;6.00;6.00;;;;;14.92;46.14;97206.16;5989899;22;104428;-82
2021/01/12 17:50:53;;;;;;;;;7.75;7.25;;;;;14.93;46.61;97205.06;5998393;22;102740;-82
2021/01/12 17:53:23;;;;;;;;;7.00;6.25;;;;;14.94;46.46;97209.44;5970678;22;102606;-82
2021/01/12 17:55:50;;;;;;;;;4.75;3.00;;;;;14.96;46.34;97206.44;5970881;22;103107;-81
2021/01/12 17:58:17;;;;;;;;;6.50;6.00;;;;;14.99;46.37;97208.66;5999804;22;103585;-82
2021/01/12 18:00:44;;;;;;;;;6.75;5.25;;;;;14.99;46.48;97203.19;5994567;22;102908;-82
2021/01/12 18:03:11;;;;;;;;;8.00;6.00;;;;;15.00;46.60;97205.66;5944989;22;102553;-82
2021/01/12 18:05:38;;;;;;;;;7.25;6.25;;;;;15.04;46.26;97204.03;5995752;22;102810;-82
2021/01/12 18:08:06;;;;;;;;;4.00;4.00;;;;;15.06;46.74;97199.16;5981578;22;103966;-81
2021/01/12 18:10:37;;;;;;;;;7.00;5.50;;;;;15.08;46.34;97191.53;5997612;22;102783;-81
2021/01/12 18:13:05;;;;;;;;;8.00;6.75;;;;;15.11;46.44;97199.19;5971706;22;102655;-81
2021/01/12 18:15:32;;;;;;;;;5.50;5.00;;;;;15.13;46.39;97177.94;5971918;22;102804;-81
2021/01/12 18:18:00;;;;;;;;;6.25;5.75;;;;;15.18;46.42;97185.31;5994245;22;102814;-81
2021/01/12 18:20:27;;;;;;;;;7.00;5.75;;;;;15.20;46.09;97185.88;5994325;22;102557;-81
2021/01/12 18:22:58;;;;;;;;;7.00;6.25;;;;;15.23;46.43;97179.91;5995074;22;102713;-81
2021/01/12 18:25:27;;;;;;;;;6.00;6.00;;;;;15.27;46.06;97183.72;5996406;22;102802;-80
2021/01/12 18:27:58;;;;;;;;;8.75;6.00;;;;;15.32;46.33;97185.66;5994920;22;103860;-81
2021/01/12 18:30:26;;;;;;;;;5.50;5.25;;;;;15.34;46.06;97183.50;5987847;22;102527;-80
2021/01/12 18:32:53;;;;;;;;;16.00;14.75;;;;;15.61;56.46;97185.00;5994416;22;102562;-88
2021/01/12 18:35:21;;;;;;;;;8.75;8.00;;;;;15.75;46.11;97179.88;5989873;22;102693;-80
2021/01/12 18:37:55;;;;;;;;;8.50;7.50;;;;;15.84;45.80;97180.97;5987018;22;104103;-80
2021/01/12 18:40:29;;;;;;;;;23.00;12.00;;;;;15.91;46.24;97178.81;5991728;22;102548;-79
2021/01/12 18:43:03;;;;;;;;;22.00;10.25;;;;;16.00;45.81;97182.63;5988659;22;102879;-82
2021/01/12 18:45:35;;;;;;;;;11.25;10.25;;;;;16.05;45.61;97182.66;5989195;22;102768;-82
2021/01/12 18:48:02;;;;;;;;;11.00;9.75;;;;;16.29;44.78;97176.69;5972139;22;103039;-82
2021/01/12 18:50:32;;;;;;;;;10.00;9.00;;;;;16.42;44.76;97181.59;5985762;22;102660;-81
2021/01/12 18:52:59;;;;;;;;;10.75;9.75;;;;;16.55;44.42;97177.47;5987133;22;102746;-79
2021/01/12 18:55:26;;;;;;;;;9.00;8.25;;;;;16.61;43.72;97173.69;5994086;22;102773;-78
2021/01/12 18:57:56;;;;;;;;;10.00;9.00;;;;;16.60;44.31;97170.16;5967435;22;104011;-78
2021/01/12 19:00:27;;;;;;;;;12.75;9.50;;;;;16.57;44.03;97175.31;5987606;22;102633;-78
2021/01/12 19:03:03;;;;;;;;;9.00;9.00;;;;;16.58;43.56;97171.50;5983358;22;102675;-79
2021/01/12 19:05:39;;;;;;;;;9.00;9.00;;;;;16.62;44.26;97175.31;5861834;22;102836;-77
2021/01/12 19:08:10;;;;;;;;;6.50;6.50;;;;;16.69;43.79;97168.50;5989262;22;103941;-79
2021/01/12 19:10:45;;;;;;;;;6.75;6.00;;;;;16.79;43.92;97167.69;5995809;22;102697;-79
2021/01/12 19:13:15;;;;;;;;;7.00;6.50;;;;;16.86;43.88;97173.66;5989985;22;102510;-77
2021/01/12 19:15:46;;;;;;;;;6.25;6.00;;;;;17.00;44.13;97171.16;5969044;22;102818;-79
2021/01/12 19:18:17;;;;;;;;;9.25;7.50;;;;;17.09;42.60;97166.78;5991445;22;105002;-80
2021/01/12 19:20:45;;;;;;;;;7.50;5.00;;;;;17.25;42.89;97163.72;5966440;22;102886;-82
2021/01/12 19:23:15;;;;;;;;;8.00;6.75;;;;;17.29;43.63;97164.00;5990767;22;102587;-81
2021/01/12 19:25:48;;;;;;;;;11.00;7.00;;;;;17.34;42.86;97167.50;5997099;22;102747;-79
2021/01/12 19:28:17;;;;;;;;;9.25;7.75;;;;;17.35;43.81;97171.06;5967311;22;104087;-77
2021/01/12 19:30:47;;;;;;;;;12.75;9.00;;;;;17.31;43.41;97172.72;5997328;22;102796;-76
2021/01/12 19:33:16;;;;;;;;;8.25;8.00;;;;;17.36;43.04;97167.22;5993172;22;102491;-76
2021/01/12 19:35:47;;;;;;;;;8.50;7.00;;;;;17.54;43.49;97172.06;5999234;22;102715;-83
2021/01/12 19:38:14;;;;;;;;;2.00;2.00;;;;;17.55;44.37;97164.69;5990582;22;104005;-88
2021/01/12 19:40:40;;;;;;;;;4.00;4.00;;;;;17.67;42.41;97167.94;5992700;22;102900;-88
2021/01/12 19:43:08;;;;;;;;;8.00;7.25;;;;;17.99;42.19;97175.69;5982100;22;102774;-90
2021/01/12 19:45:36;;;;;;;;;6.50;6.00;;;;;18.26;41.63;97176.06;5973202;22;102963;-88
2021/01/12 19:48:04;;;;;;;;;10.00;7.00;;;;;18.45;41.67;97167.97;5989622;22;103908;-87
2021/01/12 19:50:31;;;;;;;;;9.50;8.00;;;;;18.51;40.72;97173.09;5970786;22;105286;-88
2021/01/12 19:52:58;;;;;;;;;19.50;12.00;;;;;18.57;41.02;97172.00;5990172;22;102802;-88
2021/01/12 19:55:26;;;;;;;;;16.50;13.00;;;;;18.64;40.18;97172.47;5990479;22;102787;-85
2021/01/12 19:57:54;;;;;;;;;17.00;10.00;;;;;18.56;40.95;97164.88;5992209;22;104255;-86
2021/01/12 20:00:21;;;;;;;;;15.75;13.50;;;;;18.70;40.85;97179.53;5994235;22;102600;-81
2021/01/12 20:02:48;;;;;;;;;21.25;16.00;;;;;18.53;40.15;97170.13;5990695;22;102796;-91
2021/01/12 20:05:15;;;;;;;;;17.00;15.25;;;;;18.37;41.21;97165.84;5998069;22;102775;-92
2021/01/12 20:07:43;;;;;;;;;23.25;16.75;;;;;18.21;41.66;97170.63;5995333;22;104021;-94
2021/01/12 20:10:11;;;;;;;;;19.75;16.00;;;;;18.13;41.95;97168.50;5994576;22;102564;-92
2021/01/12 20:12:52;;;;;;;;;19.75;14.50;;;;;18.29;41.90;97170.81;5993072;22;102720;-86
2021/01/12 20:15:20;;;;;;;;;15.25;14.00;;;;;18.31;41.43;97167.81;5991609;22;102852;-86
2021/01/12 20:18:16;;;;;;;;;19.75;13.25;;;;;18.33;40.42;97171.06;5994301;22;104012;-87
2021/01/12 20:20:50;;;;;;;;;14.25;13.25;;;;;18.45;41.00;97166.06;5903560;22;102814;-88
2021/01/12 20:23:19;;;;;;;;;15.25;11.00;;;;;18.50;40.37;97176.16;5994879;22;102842;-91
2021/01/12 20:25:51;;;;;;;;;13.25;10.25;;;;;18.51;40.77;97173.09;5998390;22;102886;-85
2021/01/12 20:28:20;;;;;;;;;11.50;8.75;;;;;18.63;40.59;97176.34;5992492;22;103618;-85
2021/01/12 20:30:48;;;;;;;;;10.25;9.00;;;;;18.65;40.46;97186.97;5994267;22;102681;-93
2021/01/12 20:33:16;;;;;;;;;10.75;9.25;;;;;18.51;39.82;97173.09;5994332;22;102648;-96
2021/01/12 20:35:47;;;;;;;;;9.50;8.25;;;;;18.54;40.39;97172.59;5972310;22;102844;-94
2021/01/12 20:38:16;;;;;;;;;11.75;8.00;;;;;18.58;41.52;97173.63;5996593;22;103761;-95
2021/01/12 20:40:42;;;;;;;;;8.00;7.50;;;;;18.45;41.20;97167.97;5995444;22;102859;-83
2021/01/12 20:43:12;;;;;;;;;13.00;9.00;;;;;18.39;40.76;97169.09;5995976;22;102802;-84
2021/01/12 20:45:41;;;;;;;;;15.25;11.75;;;;;18.34;41.47;97169.16;5997838;22;102490;-79
2021/01/12 20:48:10;;;;;;;;;10.67;7.00;;;;;18.11;41.86;97160.56;5997186;22;104343;-79
2021/01/12 20:50:39;;;;;;;;;11.50;9.25;;;;;17.99;41.84;97164.75;5997881;22;102804;-80
2021/01/12 20:53:08;;;;;;;;;11.00;10.00;;;;;17.75;41.69;97156.41;5969840;22;102624;-79
2021/01/12 20:55:35;;;;;;;;;9.67;8.00;;;;;17.59;42.36;97161.16;6000150;22;102797;-79
2021/01/12 20:58:03;;;;;;;;;12.75;11.75;;;;;17.42;42.33;97162.56;5969467;22;103687;-79
2021/01/12 21:00:31;;;;;;;;;10.33;8.67;;;;;17.24;42.08;97164.84;5993311;22;102868;-79
2021/01/12 21:02:59;;;;;;;;;10.00;7.75;;;;;17.09;42.25;97158.59;5987852;22;102749;-79
2021/01/12 21:05:32;;;;;;;;;14.00;11.25;;;;;16.93;43.46;97157.81;5988820;22;102862;-79
2021/01/12 21:08:05;;;;;;;;;9.75;9.50;;;;;16.85;43.76;97155.63;5990952;22;107688;-78
2021/01/12 21:10:31;;;;;;;;;10.50;8.00;;;;;16.75;43.32;97161.13;5965377;22;105262;-78
2021/01/12 21:12:58;;;;;;;;;11.50;8.75;;;;;16.67;43.25;97159.75;5997890;22;102712;-79
2021/01/12 21:15:25;;;;;;;;;10.00;8.75;;;;;16.61;42.95;97166.34;6002452;22;102793;-79
2021/01/12 21:17:54;;;;;;;;;8.25;6.50;;;;;16.53;43.45;97166.84;5971589;22;104060;-79
2021/01/12 21:20:22;;;;;;;;;12.50;10.75;;;;;16.44;43.62;97160.28;5994078;22;102895;-78
2021/01/12 21:22:48;;;;;;;;;8.00;7.00;;;;;16.41;43.42;97171.75;5997946;22;102884;-78
2021/01/12 21:25:17;;;;;;;;;7.75;7.25;;;;;16.31;44.25;97160.84;5996393;22;102807;-79
2021/01/12 21:27:50;;;;;;;;;9.50;8.00;;;;;16.21;44.23;97156.19;6000280;22;104523;-78
2021/01/12 21:30:22;;;;;;;;;9.75;8.00;;;;;16.18;44.30;97153.19;5992852;22;104312;-78
2021/01/12 21:32:50;;;;;;;;;8.00;7.50;;;;;16.10;44.02;97149.13;5995527;22;102858;-78
2021/01/12 21:35:18;;;;;;;;;8.25;8.00;;;;;16.08;43.69;97152.09;5963644;22;102823;-78
2021/01/12 21:37:46;;;;;;;;;10.00;9.00;;;;;16.01;43.81;97151.56;5996224;22;104444;-78
2021/01/12 21:40:14;;;;;;;;;10.00;8.50;;;;;15.90;44.49;97149.91;5956464;22;102805;-79
2021/01/12 21:42:41;;;;;;;;;10.00;7.00;;;;;15.83;44.47;97151.25;5986454;22;102793;-79
2021/01/12 21:45:13;;;;;;;;;9.50;6.50;;;;;15.79;44.53;97145.53;5988466;22;102822;-79
2021/01/12 21:47:44;;;;;;;;;8.00;6.50;;;;;15.77;44.32;97161.31;5960334;22;103858;-79
2021/01/12 21:50:11;;;;;;;;;9.00;7.75;;;;;15.73;44.52;97157.50;5995013;22;102452;-79
2021/01/12 21:52:38;;;;;;;;;13.00;9.00;;;;;15.67;44.16;97158.56;5995452;22;102875;-79
2021/01/12 21:55:06;;;;;;;;;9.50;7.00;;;;;15.60;44.19;97155.28;5987655;22;102805;-79
2021/01/12 21:57:35;;;;;;;;;7.50;7.50;;;;;15.56;44.76;97154.19;5991362;22;102979;-79
2021/01/12 22:00:11;;;;;;;;;9.00;6.50;;;;;15.53;44.58;97149.28;5997040;22;102801;-79
2021/01/12 22:02:41;;;;;;;;;6.00;4.75;;;;;15.43;44.72;97144.59;5957347;22;102780;-79
2021/01/12 22:05:14;;;;;;;;;7.75;6.75;;;;;15.43;44.60;97151.94;5993818;22;102850;-79
2021/01/12 22:07:45;;;;;;;;;7.00;6.50;;;;;15.37;44.64;97156.53;5990080;22;103912;-80
2021/01/12 22:10:12;;;;;;;;;8.50;6.00;;;;;15.37;44.77;97153.81;5972577;22;102563;-80
2021/01/12 22:12:45;;;;;;;;;7.75;6.00;;;;;15.33;44.89;97151.91;5996655;22;102886;-79
2021/01/12 22:15:12;;;;;;;;;7.00;7.00;;;;;15.34;44.89;97154.38;5998458;22;102615;-79
2021/01/12 22:17:49;;;;;;;;;5.00;5.00;;;;;15.27;44.90;97150.22;6001031;22;103765;-79
2021/01/12 22:20:16;;;;;;;;;7.00;7.00;;;;;15.27;45.26;97161.13;5974625;22;102952;-79
2021/01/12 22:22:43;;;;;;;;;7.75;7.00;;;;;15.23;45.03;97158.13;5998954;22;102862;-79
2021/01/12 22:25:10;;;;;;;;;5.25;5.00;;;;;15.14;45.13;97152.38;6002870;22;102897;-79
2021/01/12 22:27:37;;;;;;;;;5.75;5.75;;;;;15.11;45.13;97150.19;5998686;22;104289;-80
2021/01/12 22:30:10;;;;;;;;;6.00;5.50;;;;;15.10;44.86;97150.44;6004410;22;102727;-79
2021/01/12 22:32:36;;;;;;;;;6.00;5.75;;;;;15.09;45.35;97151.50;6002440;22;102518;-80
2021/01/12 22:35:04;;;;;;;;;6.00;6.00;;;;;15.06;45.40;97162.94;6004513;22;103774;-79